Portada
METAR-TAF:

METAR-TAF

Aeroports :

Amman, Jordània

latitud: 31-59N, longitud: 035-59E, altitud: 767 m

Observació

L'informe es va fer fa 40 minuts, a les 20:00 UTC
Vent 8 kt del Oest/Sud-Oest
Temperatura 23°C
Humitat 31%
Pressió 1013 hPa
Visibilitat 10 km o més
sense núvols per sota de 1500 mi sense presència de cumulonimbus.

METAR: OJAM 012000Z 24008KT CAVOK 23/05 Q1013 NOSIG

Hora: 23:40 (20:40 UTC)

Pronòstic

L'informe es va fer fa 3 hores i 6 minuts, a les 17:34 UTC
Pronòstic vàlid del 01 a les 18 UTC al 02 a les 24 UTC
Vent 6 kt del Oest
Visibilitat 10 km o més
sense núvols per sota de 1500 mi sense presència de cumulonimbus.
Probabilitat 40% :
Temporalment
l' 02 a les 00 UTC al 02 a les 06 UTC
Vent 1 kt amb direcció variable
Visibilitat: 3000 m
Temporalment
l' 02 a les 10 UTC al 02 a les 18 UTC
Vent 16 kt del Sud-Oest
Visibilitat: 3000 m
torb alta de pols

TAF: OJAM 011734Z 0118/0224 28006KT CAVOK PROB40 TEMPO 0200/0206 VRB01KT 3000 TEMPO 0210/0218 23016KT 3000 BLDU

Observacions i pronòstics meteorològics de més de 4000 aeroports (METAR i TAF).

Les estacions disponibles són els punts grocs i vermells al mapa.

Posi el ratolí al punt desitjat per veure el nom de l'estació.

Feu clic per veure les observacions i els pronòstics meteorològics.

Per canviar el mapa: feu clic els botons verds amb una creu de color negre per apropar; al botó verd amb un guió per allunyar la imatge; o en les fletxes verdes per a mapes adjacents.


METAR-TAF: